Pas de pilote en ligne...

Compagnie Fsx-France ! Un nouveau look pour votre VA, par : Julien & Co

 METAR ET TAF INFORMATION
METAR FOR ZSNB :
ZSNB 242100Z 22002MPS CAVOK 14/10 Q1011 NOSIG

 AÉROPORT DE AÉROPORT

 INFORMATIONS DE PISTE
Piste 13 Longueur de la piste 3200 m = 10499 ft Largeur de la piste 45 m = 148 ft
Élévation de la piste 13 ft Seuil de la piste déplacés 492 ft Runway heading 123
Piste 31 Longueur de la piste 3200 m = 10499 ft Largeur de la piste 45 m = 148 ft
Élévation de la piste 13 ft Seuil de la piste déplacés 0 ft Runway heading 303
 AÉROPORT FRÉQUENCES
Type GND Nom NINGBO GND Féquence 121.85 MHZ
Type TWR Nom NINGBO TWR Féquence 118.35 MHZ

 AIDES A LA NAVIGATION
Type NDB Nom Ningbo Féquence 227 KHZ
Type VOR-DME Nom Ningbo Féquence 116300 KHZ